createdAt,value
2018-09-28T00:00:19.196Z,70.30
2018-09-28T00:02:49.746Z,70.20
2018-09-28T00:05:19.871Z,70.30
2018-09-28T00:07:49.464Z,70.30
2018-09-28T00:10:19.511Z,70.30
2018-09-28T00:12:49.270Z,70.40
2018-09-28T00:15:19.099Z,70.60
2018-09-28T00:17:48.900Z,70.70
2018-09-28T00:20:18.518Z,70.80
2018-09-28T00:22:47.991Z,70.70
2018-09-28T00:25:17.952Z,70.40
2018-09-28T00:27:48.570Z,70.30
2018-09-28T00:30:19.113Z,69.70
2018-09-28T00:32:48.704Z,69.10
2018-09-28T00:35:18.621Z,69.30
2018-09-28T00:37:49.436Z,69.40
2018-09-28T00:40:19.066Z,69.50
2018-09-28T00:42:48.492Z,69.60
2018-09-28T00:45:18.694Z,69.80
2018-09-28T00:47:48.112Z,69.90
2018-09-28T00:50:18.195Z,70.00
2018-09-28T00:52:48.026Z,70.00
2018-09-28T00:55:17.945Z,70.00
2018-09-28T00:57:48.268Z,70.20
2018-09-28T01:00:18.785Z,70.30
2018-09-28T01:02:50.210Z,70.40
2018-09-28T01:05:20.357Z,70.50
2018-09-28T01:07:50.089Z,70.50
2018-09-28T01:10:20.635Z,70.40
2018-09-28T01:12:50.575Z,70.50
2018-09-28T01:15:20.346Z,70.60
2018-09-28T01:17:50.268Z,70.50
2018-09-28T01:20:20.157Z,70.50
2018-09-28T01:22:49.733Z,70.50
2018-09-28T01:25:19.364Z,70.50
2018-09-28T01:27:50.115Z,70.30
2018-09-28T01:30:19.271Z,70.00
2018-09-28T01:32:48.986Z,69.70
2018-09-28T01:35:18.772Z,69.40
2018-09-28T01:37:48.657Z,69.60
2018-09-28T01:40:18.939Z,69.60
2018-09-28T01:42:52.956Z,69.70
2018-09-28T01:45:22.543Z,69.80
2018-09-28T01:47:52.223Z,69.90
2018-09-28T01:50:21.694Z,70.20
2018-09-28T01:52:51.597Z,70.30
2018-09-28T01:55:21.386Z,70.40
2018-09-28T01:57:52.667Z,70.50
2018-09-28T02:00:22.722Z,70.50
2018-09-28T02:02:52.481Z,70.50
2018-09-28T02:05:22.224Z,70.50
2018-09-28T02:07:51.905Z,70.50
2018-09-28T02:10:21.356Z,70.50
2018-09-28T02:12:51.865Z,70.40
2018-09-28T02:15:21.750Z,70.20
2018-09-28T02:17:51.466Z,70.10
2018-09-28T02:20:22.026Z,69.90
2018-09-28T02:22:52.115Z,69.80
2018-09-28T02:25:21.736Z,69.70
2018-09-28T02:27:52.415Z,69.50
2018-09-28T02:30:22.096Z,69.40
2018-09-28T02:32:52.083Z,69.40
2018-09-28T02:35:21.569Z,69.10
2018-09-28T02:37:51.073Z,68.90
2018-09-28T02:40:20.315Z,68.40
2018-09-28T02:42:50.396Z,68.40
2018-09-28T02:45:20.071Z,68.50
2018-09-28T02:47:49.447Z,68.60
2018-09-28T02:50:19.093Z,69.50
2018-09-28T02:52:49.596Z,69.10
2018-09-28T02:55:19.448Z,69.00
2018-09-28T02:57:49.606Z,69.00
2018-09-28T03:00:19.369Z,68.90
2018-09-28T03:02:49.574Z,68.80
2018-09-28T03:05:19.168Z,68.90
2018-09-28T03:07:49.401Z,69.10
2018-09-28T03:10:18.936Z,68.90
2018-09-28T03:12:49.203Z,68.50
2018-09-28T03:15:18.952Z,68.20
2018-09-28T03:17:48.998Z,68.00
2018-09-28T03:20:19.260Z,68.20
2018-09-28T03:22:49.205Z,68.60
2018-09-28T03:25:19.581Z,68.70
2018-09-28T03:27:49.272Z,68.90
2018-09-28T03:30:19.180Z,68.90
2018-09-28T03:32:48.726Z,69.00
2018-09-28T03:35:18.589Z,69.00
2018-09-28T03:37:48.782Z,68.90
2018-09-28T03:40:18.535Z,69.00
2018-09-28T03:42:48.245Z,69.30
2018-09-28T03:45:18.700Z,69.10
2018-09-28T03:47:49.855Z,69.10
2018-09-28T03:50:20.629Z,68.70
2018-09-28T03:52:54.887Z,68.60
2018-09-28T03:55:24.608Z,68.40
2018-09-28T03:57:54.392Z,68.10
2018-09-28T04:00:25.240Z,68.10
2018-09-28T04:02:54.237Z,68.40
2018-09-28T04:05:24.703Z,68.50
2018-09-28T04:07:54.542Z,68.50
2018-09-28T04:10:24.339Z,68.60
2018-09-28T04:12:53.771Z,68.20
2018-09-28T04:15:23.526Z,68.00
2018-09-28T04:17:53.243Z,68.00
2018-09-28T04:20:23.228Z,68.20
2018-09-28T04:22:53.129Z,68.40
2018-09-28T04:25:23.571Z,68.50
2018-09-28T04:27:53.263Z,68.60
2018-09-28T04:30:23.413Z,68.70
2018-09-28T04:32:53.011Z,68.80
2018-09-28T04:35:23.635Z,68.80
2018-09-28T04:38:05.275Z,69.00
2018-09-28T04:40:34.816Z,69.10
2018-09-28T04:43:05.356Z,69.00
2018-09-28T04:45:35.013Z,69.20
2018-09-28T04:48:06.643Z,69.30
2018-09-28T04:50:36.570Z,69.30
2018-09-28T04:53:07.097Z,69.40
2018-09-28T04:55:37.310Z,69.40
2018-09-28T04:58:07.665Z,69.60
2018-09-28T05:00:37.773Z,69.70
2018-09-28T05:03:07.803Z,68.40
2018-09-28T05:05:38.237Z,67.90
2018-09-28T05:08:08.744Z,67.80
2018-09-28T05:10:38.173Z,69.30
2018-09-28T05:13:09.385Z,69.70
2018-09-28T05:15:38.833Z,70.00
2018-09-28T05:18:09.569Z,70.10
2018-09-28T05:20:39.422Z,70.80
2018-09-28T05:23:09.279Z,70.30
2018-09-28T05:25:39.501Z,70.50
2018-09-28T05:28:09.177Z,70.60
2018-09-28T05:30:44.972Z,70.70
2018-09-28T05:33:08.674Z,70.80
2018-09-28T05:35:38.433Z,70.90
2018-09-28T05:38:08.094Z,71.20
2018-09-28T05:40:38.018Z,71.30
2018-09-28T05:43:07.807Z,71.50
2018-09-28T05:45:38.114Z,71.70
2018-09-28T05:48:07.448Z,72.40
2018-09-28T05:50:37.572Z,72.00
2018-09-28T05:53:07.289Z,71.50
2018-09-28T05:55:37.736Z,71.30
2018-09-28T06:00:16.271Z,71.10
2018-09-28T06:02:51.672Z,71.40
2018-09-28T06:05:26.632Z,71.50
2018-09-28T06:07:56.641Z,71.80
2018-09-28T06:10:28.029Z,71.90
2018-09-28T06:12:57.884Z,72.00
2018-09-28T06:15:27.485Z,72.20
2018-09-28T06:17:56.932Z,72.40
2018-09-28T06:20:26.533Z,72.50
2018-09-28T06:22:56.834Z,72.80
2018-09-28T06:25:26.765Z,72.90
2018-09-28T06:27:56.697Z,73.00
2018-09-28T06:30:26.507Z,73.80
2018-09-28T06:32:56.790Z,74.40
2018-09-28T06:35:26.987Z,74.80
2018-09-28T06:37:57.323Z,75.10
2018-09-28T06:40:27.945Z,75.10
2018-09-28T06:42:57.565Z,75.20
2018-09-28T06:45:27.227Z,74.40
2018-09-28T06:47:57.130Z,74.50
2018-09-28T06:50:26.466Z,74.80
2018-09-28T06:52:56.232Z,75.00
2018-09-28T06:55:26.121Z,75.30
2018-09-28T06:57:55.310Z,75.60
2018-09-28T07:00:24.567Z,75.70
2018-09-28T07:02:54.105Z,75.80
2018-09-28T07:05:23.227Z,75.80
2018-09-28T07:07:53.059Z,75.90
2018-09-28T07:10:22.647Z,75.80
2018-09-28T07:12:51.788Z,75.80
2018-09-28T07:15:21.875Z,75.60
2018-09-28T07:17:51.352Z,75.50
2018-09-28T07:20:20.623Z,75.40
2018-09-28T07:22:50.019Z,75.20
2018-09-28T07:25:20.802Z,75.10
2018-09-28T07:27:50.531Z,75.10
2018-09-28T07:30:19.851Z,74.90
2018-09-28T07:32:48.860Z,74.90
2018-09-28T07:35:18.216Z,74.90
2018-09-28T07:37:48.484Z,74.80
2018-09-28T07:40:18.961Z,74.60
2018-09-28T07:42:48.165Z,74.50
2018-09-28T07:45:17.317Z,74.30
2018-09-28T07:47:46.100Z,74.40
2018-09-28T07:50:15.574Z,74.40
2018-09-28T07:52:44.991Z,74.30
2018-09-28T07:55:14.809Z,74.40
2018-09-28T07:57:44.222Z,74.40
2018-09-28T08:00:13.744Z,74.50
2018-09-28T08:02:42.572Z,74.60
2018-09-28T08:05:11.580Z,74.50
2018-09-28T08:07:41.138Z,74.40
2018-09-28T08:10:10.632Z,74.60
2018-09-28T08:12:39.743Z,74.40
2018-09-28T08:15:08.878Z,74.20
2018-09-28T08:17:38.108Z,73.60
2018-09-28T08:20:07.884Z,73.30
2018-09-28T08:22:37.331Z,73.30
2018-09-28T08:25:06.593Z,72.80
2018-09-28T08:27:36.094Z,72.70
2018-09-28T08:30:05.457Z,72.30
2018-09-28T08:32:34.479Z,71.50
2018-09-28T08:35:03.955Z,71.60
2018-09-28T08:37:33.360Z,71.60
2018-09-28T08:40:02.430Z,71.80
2018-09-28T08:42:31.508Z,71.80
2018-09-28T08:45:03.415Z,71.60
2018-09-28T08:47:32.698Z,71.60
2018-09-28T08:50:01.672Z,71.20
2018-09-28T08:52:30.759Z,71.10
2018-09-28T08:54:59.998Z,71.00
2018-09-28T08:57:29.367Z,70.70
2018-09-28T08:59:58.499Z,70.40
2018-09-28T09:02:27.395Z,70.00
2018-09-28T09:04:56.697Z,69.80
2018-09-28T09:07:25.544Z,69.40
2018-09-28T09:09:54.851Z,69.60
2018-09-28T09:12:23.805Z,69.00
2018-09-28T09:14:53.152Z,69.20
2018-09-28T09:17:21.968Z,69.70
2018-09-28T09:19:51.080Z,69.30
2018-09-28T09:22:20.431Z,68.60
2018-09-28T09:24:49.287Z,69.10
2018-09-28T09:27:18.437Z,68.80
2018-09-28T09:29:47.765Z,68.70
2018-09-28T09:32:16.948Z,68.90
2018-09-28T09:34:46.142Z,69.30
2018-09-28T09:37:18.429Z,69.00
2018-09-28T09:39:47.891Z,69.10
2018-09-28T09:42:17.296Z,69.40
2018-09-28T09:44:46.681Z,71.60
2018-09-28T09:47:15.830Z,69.50
2018-09-28T09:49:44.983Z,68.30
2018-09-28T09:52:14.164Z,68.30
2018-09-28T09:54:43.546Z,69.20
2018-09-28T09:57:13.130Z,68.40
2018-09-28T09:59:42.234Z,68.00
2018-09-28T10:02:17.249Z,67.60
2018-09-28T10:04:46.903Z,67.40
2018-09-28T10:07:16.363Z,67.00
2018-09-28T10:09:45.645Z,66.90
2018-09-28T10:12:15.008Z,68.00
2018-09-28T10:14:44.368Z,66.50
2018-09-28T10:17:14.070Z,66.60
2018-09-28T10:19:44.250Z,67.00
2018-09-28T10:22:13.747Z,66.40
2018-09-28T10:24:42.799Z,65.20
2018-09-28T10:27:11.959Z,65.60
2018-09-28T10:29:41.116Z,65.60
2018-09-28T10:32:10.614Z,65.20
2018-09-28T10:34:39.862Z,65.00
2018-09-28T10:37:09.468Z,65.10
2018-09-28T10:39:39.225Z,64.70
2018-09-28T10:42:09.318Z,63.60
2018-09-28T10:44:38.352Z,63.50
2018-09-28T10:47:07.552Z,62.70
2018-09-28T10:49:37.444Z,63.30
2018-09-28T10:52:07.624Z,62.80
2018-09-28T10:54:37.286Z,62.80
2018-09-28T10:57:07.475Z,62.20
2018-09-28T10:59:36.403Z,62.00
2018-09-28T11:02:05.583Z,61.40
2018-09-28T11:04:35.037Z,61.00
2018-09-28T11:07:04.586Z,60.80
2018-09-28T11:09:33.643Z,61.20
2018-09-28T11:12:03.291Z,60.30
2018-09-28T11:14:32.578Z,59.30
2018-09-28T11:17:02.069Z,59.20
2018-09-28T11:19:31.638Z,58.00
2018-09-28T11:22:01.096Z,58.90
2018-09-28T11:24:30.808Z,57.80
2018-09-28T11:27:00.957Z,57.90
2018-09-28T11:29:30.278Z,56.90
2018-09-28T11:31:59.525Z,57.20
2018-09-28T11:34:29.541Z,57.50
2018-09-28T11:36:58.656Z,56.90
2018-09-28T11:39:28.280Z,57.30
2018-09-28T11:41:57.780Z,56.30
2018-09-28T11:44:27.002Z,56.40
2018-09-28T11:46:57.548Z,56.70
2018-09-28T11:49:26.650Z,56.00
2018-09-28T11:51:58.223Z,56.10
2018-09-28T11:54:27.871Z,56.60
2018-09-28T11:56:58.447Z,55.80
2018-09-28T11:59:28.102Z,56.50
2018-09-28T12:01:58.376Z,54.50
2018-09-28T12:04:28.326Z,55.00
2018-09-28T12:06:58.574Z,55.10
2018-09-28T12:09:28.546Z,53.60
2018-09-28T12:11:58.113Z,54.40
2018-09-28T12:14:27.733Z,54.10
2018-09-28T12:16:56.886Z,52.60
2018-09-28T12:19:26.717Z,52.20
2018-09-28T12:21:55.853Z,51.90
2018-09-28T12:24:25.497Z,52.50
2018-09-28T12:26:55.821Z,51.20
2018-09-28T12:29:25.169Z,51.60
2018-09-28T12:31:54.513Z,51.70
2018-09-28T12:34:24.396Z,51.30
2018-09-28T12:36:54.364Z,51.00
2018-09-28T12:39:24.909Z,52.30
2018-09-28T12:41:55.354Z,52.60
2018-09-28T12:44:25.001Z,51.50
2018-09-28T12:46:54.740Z,53.00
2018-09-28T12:49:24.155Z,52.60
2018-09-28T12:51:54.810Z,51.70
2018-09-28T12:54:24.682Z,52.30
2018-09-28T12:56:54.639Z,52.30
2018-09-28T12:59:23.776Z,52.70
2018-09-28T13:01:53.734Z,50.40
2018-09-28T13:04:24.191Z,50.40
2018-09-28T13:06:54.558Z,50.80
2018-09-28T13:09:24.054Z,49.90
2018-09-28T13:11:55.257Z,50.40
2018-09-28T13:14:28.618Z,50.50
2018-09-28T13:17:00.565Z,50.60
2018-09-28T13:19:29.772Z,51.40
2018-09-28T13:22:00.438Z,49.50
2018-09-28T13:24:29.767Z,50.60
2018-09-28T13:26:59.723Z,49.70
2018-09-28T13:29:29.270Z,50.10
2018-09-28T13:31:58.945Z,49.80
2018-09-28T13:34:28.259Z,50.10
2018-09-28T13:36:58.732Z,50.00
2018-09-28T13:39:29.096Z,49.00
2018-09-28T13:41:58.725Z,49.70
2018-09-28T13:44:28.239Z,50.10
2018-09-28T13:46:57.622Z,49.60
2018-09-28T13:49:27.640Z,49.20
2018-09-28T13:51:57.744Z,48.70
2018-09-28T13:54:27.578Z,49.50
2018-09-28T13:56:57.760Z,49.60
2018-09-28T13:59:27.168Z,49.50
2018-09-28T14:01:56.597Z,50.10
2018-09-28T14:04:26.828Z,48.80
2018-09-28T14:06:56.137Z,49.20
2018-09-28T14:09:26.157Z,50.10
2018-09-28T14:11:56.058Z,49.70
2018-09-28T14:14:26.016Z,48.80
2018-09-28T14:16:55.342Z,48.80
2018-09-28T14:19:25.079Z,47.90
2018-09-28T14:21:55.327Z,49.30
2018-09-28T14:24:25.864Z,49.60
2018-09-28T14:26:57.210Z,50.10
2018-09-28T14:29:26.827Z,50.90
2018-09-28T14:31:57.214Z,47.50
2018-09-28T14:34:26.789Z,47.50
2018-09-28T14:36:56.489Z,47.80
2018-09-28T14:39:26.346Z,47.80
2018-09-28T14:41:58.152Z,48.10
2018-09-28T14:44:27.888Z,48.40
2018-09-28T14:46:58.400Z,49.20
2018-09-28T14:49:28.733Z,49.10
2018-09-28T14:51:58.743Z,48.90
2018-09-28T14:54:28.484Z,49.10
2018-09-28T14:57:00.166Z,49.30
2018-09-28T14:59:30.031Z,49.80
2018-09-28T15:02:00.183Z,48.70
2018-09-28T15:04:29.563Z,47.90
2018-09-28T15:07:00.580Z,47.90
2018-09-28T15:09:31.379Z,49.00
2018-09-28T15:12:00.614Z,49.50
2018-09-28T15:14:30.696Z,49.90
2018-09-28T15:17:00.801Z,49.80
2018-09-28T15:19:30.690Z,50.20
2018-09-28T15:22:00.459Z,49.70
2018-09-28T15:24:29.907Z,49.40
2018-09-28T15:26:59.865Z,50.00
2018-09-28T15:29:29.716Z,50.10
2018-09-28T15:31:59.555Z,49.50
2018-09-28T15:34:30.058Z,49.80
2018-09-28T15:36:59.930Z,49.90
2018-09-28T15:39:30.387Z,49.60
2018-09-28T15:42:00.045Z,49.00
2018-09-28T15:46:30.244Z,47.90
2018-09-28T15:49:01.474Z,48.40
2018-09-28T15:51:30.673Z,49.30
2018-09-28T15:54:00.528Z,48.20
2018-09-28T15:56:31.273Z,48.60
2018-09-28T15:59:00.847Z,48.30
2018-09-28T16:01:30.521Z,47.60
2018-09-28T16:04:00.047Z,48.40
2018-09-28T16:06:29.441Z,47.20
2018-09-28T16:08:58.660Z,47.30
2018-09-28T16:11:28.420Z,47.30
2018-09-28T16:13:58.309Z,47.60
2018-09-28T16:16:28.033Z,47.70
2018-09-28T16:18:58.084Z,47.60
2018-09-28T16:21:27.338Z,47.10
2018-09-28T16:23:56.622Z,47.40
2018-09-28T16:26:26.745Z,47.80
2018-09-28T16:28:56.680Z,47.30
2018-09-28T16:31:26.708Z,47.50
2018-09-28T16:33:56.246Z,47.90
2018-09-28T16:36:25.540Z,47.80
2018-09-28T16:38:56.645Z,48.00
2018-09-28T16:41:27.032Z,48.20
2018-09-28T16:43:57.205Z,48.10
2018-09-28T16:46:27.067Z,48.40
2018-09-28T16:48:57.236Z,48.30
2018-09-28T16:51:26.876Z,48.00
2018-09-28T16:53:56.619Z,48.40
2018-09-28T16:56:26.684Z,48.50
2018-09-28T16:58:56.420Z,48.60
2018-09-28T17:01:25.815Z,49.10
2018-09-28T17:03:55.562Z,48.40
2018-09-28T17:06:26.413Z,48.60
2018-09-28T17:08:59.262Z,49.20
2018-09-28T17:11:29.090Z,50.00
2018-09-28T17:13:58.909Z,49.40
2018-09-28T17:16:28.859Z,50.00
2018-09-28T17:18:58.563Z,50.50
2018-09-28T17:21:29.582Z,51.00
2018-09-28T17:24:00.788Z,52.00
2018-09-28T17:26:32.824Z,51.80
2018-09-28T17:29:03.803Z,51.70
2018-09-28T17:31:34.490Z,52.90
2018-09-28T17:34:06.751Z,52.60
2018-09-28T17:36:38.033Z,51.80
2018-09-28T17:39:11.864Z,53.20
2018-09-28T17:41:48.616Z,53.10
2018-09-28T17:44:20.895Z,53.50
2018-09-28T17:46:51.564Z,51.80
2018-09-28T17:49:21.727Z,53.00
2018-09-28T17:51:51.360Z,53.30
2018-09-28T17:54:21.491Z,53.30
2018-09-28T17:56:51.445Z,56.80
2018-09-28T17:59:28.322Z,55.10
2018-09-28T18:02:02.097Z,54.40
2018-09-28T18:04:31.885Z,54.60
2018-09-28T18:07:01.811Z,55.00
2018-09-28T18:09:31.111Z,54.80
2018-09-28T18:12:02.146Z,53.40
2018-09-28T18:14:31.773Z,51.10
2018-09-28T18:17:01.235Z,52.70
2018-09-28T18:19:31.382Z,51.90
2018-09-28T18:22:01.196Z,55.00
2018-09-28T18:24:30.913Z,53.00
2018-09-28T18:27:00.575Z,48.50
2018-09-28T18:29:31.673Z,52.40
2018-09-28T18:32:01.381Z,52.20
2018-09-28T18:34:31.707Z,47.60
2018-09-28T18:37:01.394Z,52.30
2018-09-28T18:39:30.960Z,47.50
2018-09-28T18:42:00.846Z,47.80
2018-09-28T18:44:30.587Z,47.60
2018-09-28T18:47:00.515Z,50.90
2018-09-28T18:49:30.080Z,52.70
2018-09-28T18:51:59.352Z,50.30
2018-09-28T18:54:28.934Z,47.40
2018-09-28T18:56:58.505Z,51.30
2018-09-28T18:59:28.289Z,46.20
2018-09-28T19:01:57.995Z,49.80
2018-09-28T19:04:27.594Z,45.70
2018-09-28T19:06:57.343Z,47.30
2018-09-28T19:09:26.925Z,45.70
2018-09-28T19:11:56.743Z,46.20
2018-09-28T19:14:26.077Z,50.30
2018-09-28T19:16:56.031Z,49.70
2018-09-28T19:19:25.869Z,52.60
2018-09-28T19:21:55.742Z,51.20
2018-09-28T19:24:25.132Z,51.00
2018-09-28T19:26:54.726Z,48.00
2018-09-28T19:29:24.937Z,48.10
2018-09-28T19:31:54.168Z,49.90
2018-09-28T19:34:23.911Z,51.20
2018-09-28T19:36:54.079Z,51.10
2018-09-28T19:39:23.082Z,49.80
2018-09-28T19:41:52.824Z,49.00
2018-09-28T19:44:21.624Z,46.50
2018-09-28T19:46:50.430Z,48.00
2018-09-28T19:49:19.986Z,46.90
2018-09-28T19:51:49.495Z,46.60
2018-09-28T19:54:18.824Z,45.80
2018-09-28T19:56:48.936Z,47.60
2018-09-28T19:59:18.731Z,45.10
2018-09-28T20:01:49.519Z,48.50
2018-09-28T20:04:19.080Z,46.60
2018-09-28T20:06:48.530Z,51.40
2018-09-28T20:09:17.599Z,49.00
2018-09-28T20:11:47.010Z,47.50
2018-09-28T20:14:16.236Z,47.80
2018-09-28T20:16:46.215Z,48.10
2018-09-28T20:19:16.254Z,50.10
2018-09-28T20:21:46.040Z,47.40
2018-09-28T20:24:15.385Z,46.90
2018-09-28T20:26:45.574Z,45.80
2018-09-28T20:29:15.122Z,46.60
2018-09-28T20:31:48.206Z,47.10
2018-09-28T20:34:19.073Z,48.80
2018-09-28T20:36:49.160Z,45.50
2018-09-28T20:39:19.890Z,46.80
2018-09-28T20:41:49.289Z,46.20
2018-09-28T20:44:19.245Z,47.80
2018-09-28T20:46:49.822Z,49.10
2018-09-28T20:49:19.148Z,49.60
2018-09-28T20:51:49.172Z,46.70
2018-09-28T20:54:19.069Z,47.20
2018-09-28T20:56:48.230Z,48.70
2018-09-28T20:59:17.393Z,46.50
2018-09-28T21:01:46.763Z,46.90
2018-09-28T21:04:15.987Z,49.90
2018-09-28T21:06:45.540Z,49.60
2018-09-28T21:09:15.311Z,48.10
2018-09-28T21:11:45.327Z,48.10
2018-09-28T21:14:14.432Z,49.10
2018-09-28T21:16:43.969Z,48.20
2018-09-28T21:19:13.582Z,48.90
2018-09-28T21:21:42.663Z,48.10
2018-09-28T21:24:12.432Z,48.00
2018-09-28T21:26:42.667Z,48.80
2018-09-28T21:29:12.190Z,51.40
2018-09-28T21:31:41.387Z,49.60
2018-09-28T21:34:11.293Z,50.40
2018-09-28T21:36:41.930Z,50.00
2018-09-28T21:39:12.365Z,50.30
2018-09-28T21:41:42.329Z,52.40
2018-09-28T21:44:11.702Z,53.40
2018-09-28T21:46:41.177Z,52.30
2018-09-28T21:49:10.447Z,51.40
2018-09-28T21:51:40.340Z,54.20
2018-09-28T21:54:09.719Z,53.40
2018-09-28T21:56:38.779Z,54.20
2018-09-28T21:59:09.918Z,52.10
2018-09-28T22:01:40.329Z,55.20
2018-09-28T22:04:10.743Z,53.10
2018-09-28T22:06:41.884Z,53.60
2018-09-28T22:11:46.329Z,53.40
2018-09-28T22:14:17.683Z,55.20
2018-09-28T22:16:46.920Z,55.70
2018-09-28T22:19:16.310Z,54.10
2018-09-28T22:21:45.707Z,54.50
2018-09-28T22:24:15.902Z,54.20
2018-09-28T22:26:45.973Z,53.10
2018-09-28T22:29:14.996Z,53.80
2018-09-28T22:31:44.671Z,53.90
2018-09-28T22:34:15.130Z,54.00
2018-09-28T22:36:45.450Z,54.60
2018-09-28T22:39:16.403Z,54.30
2018-09-28T22:41:45.886Z,55.80
2018-09-28T22:44:15.381Z,54.20
2018-09-28T22:46:44.848Z,55.20
2018-09-28T22:49:14.023Z,55.40
2018-09-28T22:51:44.095Z,54.90
2018-09-28T22:54:13.171Z,54.90
2018-09-28T22:56:42.804Z,54.50
2018-09-28T22:59:12.071Z,55.30
2018-09-28T23:01:41.703Z,55.50
2018-09-28T23:04:11.185Z,56.40
2018-09-28T23:06:40.191Z,56.60
2018-09-28T23:09:10.419Z,55.90
2018-09-28T23:11:40.163Z,56.20
2018-09-28T23:14:09.372Z,56.20
2018-09-28T23:16:38.630Z,56.90
2018-09-28T23:19:07.698Z,57.30
2018-09-28T23:21:38.071Z,57.30
2018-09-28T23:24:08.016Z,57.90
2018-09-28T23:26:37.370Z,57.40
2018-09-28T23:29:06.948Z,57.50
2018-09-28T23:31:37.063Z,57.00
2018-09-28T23:34:06.429Z,57.80
2018-09-28T23:36:36.507Z,57.20
2018-09-28T23:39:08.407Z,58.40
2018-09-28T23:41:37.961Z,58.70
2018-09-28T23:44:08.320Z,58.20
2018-09-28T23:46:38.335Z,58.50
2018-09-28T23:49:08.712Z,58.30
2018-09-28T23:51:38.838Z,57.60
2018-09-28T23:54:07.798Z,57.80
2018-09-28T23:56:37.316Z,58.70
2018-09-28T23:59:06.545Z,58.10
